Time;durP1;ratioP1;P1;durP2;ratioP2;P2;SDS_P1;SDS_P2;PMS_P1;PMS_P2;Temp;Humidity;BMP_temperature;BMP_pressure;BME280_temperature;BME280_humidity;BME280_pressure;Samples;Min_cycle;Max_cycle;Signal;HPM_P1;HPM_P2
2023/12/02 00:01:24;;;;;;;13.23;12.23;;;;;;;13.61;68.58;92170.31;5017184;28;20210;-85
2023/12/02 00:03:50;;;;;;;10.43;9.73;;;;;;;13.76;67.75;92147.03;5013069;28;20229;-84
2023/12/02 00:06:16;;;;;;;10.73;10.13;;;;;;;13.56;69.77;92166.00;5016469;28;20182;-86
2023/12/02 00:08:41;;;;;;;11.20;10.40;;;;;;;13.75;68.10;92131.59;5023582;28;20230;-84
2023/12/02 00:11:07;;;;;;;11.53;10.73;;;;;;;13.56;69.57;92126.66;5020666;28;20262;-86
2023/12/02 00:13:32;;;;;;;15.57;14.23;;;;;;;13.32;69.65;92147.31;5020158;28;20218;-85
2023/12/02 00:15:58;;;;;;;12.77;11.77;;;;;;;13.46;69.36;92140.06;5026246;28;20250;-85
2023/12/02 00:18:23;;;;;;;12.23;11.40;;;;;;;13.71;67.69;92122.81;5025293;28;20218;-84
2023/12/02 00:20:49;;;;;;;13.97;10.73;;;;;;;13.44;70.16;92160.56;5026156;28;20198;-85
2023/12/02 00:23:15;;;;;;;11.77;10.87;;;;;;;13.40;69.52;92128.16;5029324;28;20314;-84
2023/12/02 00:25:40;;;;;;;14.47;10.37;;;;;;;13.26;70.04;92124.91;5025880;28;20179;-81
2023/12/02 00:28:06;;;;;;;10.57;9.97;;;;;;;13.50;68.07;92135.75;5029737;28;20211;-83
2023/12/02 00:30:32;;;;;;;10.40;9.90;;;;;;;13.12;70.73;92116.41;5026146;28;20249;-85
2023/12/02 00:32:57;;;;;;;9.73;8.93;;;;;;;12.88;72.03;92122.03;5029927;28;20179;-83
2023/12/02 00:35:23;;;;;;;11.47;10.30;;;;;;;12.92;72.04;92130.03;5025806;28;20307;-85
2023/12/02 00:37:48;;;;;;;10.83;9.83;;;;;;;12.84;72.81;92133.44;5019950;28;20186;-83
2023/12/02 00:40:14;;;;;;;10.23;9.40;;;;;;;12.76;72.60;92136.78;5016804;28;20275;-84
2023/12/02 00:42:39;;;;;;;11.03;10.13;;;;;;;12.82;72.03;92131.06;5029638;28;20273;-84
2023/12/02 00:45:05;;;;;;;9.67;9.17;;;;;;;12.93;71.77;92110.63;5020668;28;20229;-84
2023/12/02 00:47:30;;;;;;;10.03;9.20;;;;;;;12.49;73.92;92134.34;5029544;28;20241;-84
2023/12/02 00:49:56;;;;;;;10.97;10.27;;;;;;;12.44;73.29;92113.53;5028675;28;20217;-86
2023/12/02 00:52:21;;;;;;;11.17;10.47;;;;;;;12.64;72.92;92145.19;5029736;28;20179;-87
2023/12/02 00:54:47;;;;;;;10.87;10.17;;;;;;;12.44;73.09;92161.44;5029288;28;20265;-88
2023/12/02 00:57:12;;;;;;;9.93;9.23;;;;;;;12.89;69.57;92096.59;5023346;28;20226;-85
2023/12/02 00:59:37;;;;;;;9.83;8.87;;;;;;;13.48;67.26;92079.47;5024862;28;20235;-87
2023/12/02 01:02:03;;;;;;;10.70;10.00;;;;;;;13.29;68.74;92145.25;5028651;28;20289;-88
2023/12/02 01:04:28;;;;;;;10.30;9.70;;;;;;;13.33;67.89;92146.22;5014666;28;20728;-88
2023/12/02 01:06:54;;;;;;;11.23;9.47;;;;;;;13.84;65.16;92112.16;5019033;28;20220;-88
2023/12/02 01:09:19;;;;;;;11.27;10.17;;;;;;;13.86;66.02;92117.88;5019299;28;20219;-87
2023/12/02 01:11:44;;;;;;;9.97;9.37;;;;;;;13.61;67.99;92120.47;5029421;28;20191;-89
2023/12/02 01:14:10;;;;;;;11.27;10.30;;;;;;;13.57;66.97;92111.69;5029877;28;20229;-88
2023/12/02 01:16:35;;;;;;;10.20;9.50;;;;;;;12.97;69.39;92085.38;5029568;28;20193;-88
2023/12/02 01:19:01;;;;;;;10.17;9.67;;;;;;;13.17;69.59;92131.97;5028007;28;20269;-89
2023/12/02 01:21:26;;;;;;;10.33;9.43;;;;;;;13.04;70.28;92117.16;5029037;28;20220;-87
2023/12/02 01:23:51;;;;;;;10.50;9.80;;;;;;;12.78;70.46;92095.31;5029019;28;20305;-88
2023/12/02 01:26:17;;;;;;;13.60;10.13;;;;;;;12.58;71.76;92083.56;5028761;28;20190;-89
2023/12/02 01:28:42;;;;;;;11.30;10.70;;;;;;;12.32;73.81;92116.72;5029032;28;20300;-88
2023/12/02 01:31:08;;;;;;;10.40;9.70;;;;;;;12.39;73.30;92079.66;5028878;28;20202;-84
2023/12/02 01:33:33;;;;;;;10.67;9.90;;;;;;;11.76;76.12;92094.81;5026882;28;20233;-86
2023/12/02 01:35:58;;;;;;;10.57;9.47;;;;;;;12.03;76.20;92105.91;5028989;28;20762;-86
2023/12/02 01:38:24;;;;;;;12.00;9.90;;;;;;;11.96;77.39;92118.66;5026576;28;20187;-83
2023/12/02 01:40:49;;;;;;;12.33;9.87;;;;;;;12.24;74.92;92061.69;5028818;28;20218;-85
2023/12/02 01:43:25;;;;;;;10.67;9.93;;;;;;;12.53;73.36;92080.28;5028400;28;20237;-89
2023/12/02 01:45:51;;;;;;;11.10;8.47;;;;;;;12.55;73.84;92106.94;5028209;28;20194;-82
2023/12/02 01:48:18;;;;;;;12.53;10.70;;;;;;;12.46;74.84;92114.00;5021292;28;20273;-84
2023/12/02 01:50:44;;;;;;;10.83;9.97;;;;;;;12.35;74.83;92099.63;5018426;28;20189;-87
2023/12/02 01:53:10;;;;;;;10.70;9.73;;;;;;;12.17;75.73;92083.06;5026000;28;20194;-88
2023/12/02 01:55:35;;;;;;;12.47;10.40;;;;;;;12.04;75.87;92094.41;5017880;28;20305;-87
2023/12/02 01:58:01;;;;;;;13.63;11.47;;;;;;;12.27;74.99;92093.28;5029189;28;20196;-88
2023/12/02 02:00:26;;;;;;;11.50;10.67;;;;;;;12.10;75.96;92097.66;5023357;28;20222;-87
2023/12/02 02:02:52;;;;;;;11.00;9.93;;;;;;;12.25;75.54;92068.50;5024567;28;20223;-87
2023/12/02 02:05:17;;;;;;;11.00;10.03;;;;;;;12.09;76.13;92090.88;5028363;28;20219;-88
2023/12/02 02:07:42;;;;;;;11.10;10.20;;;;;;;12.49;74.25;92082.75;5032291;28;20192;-80
2023/12/02 02:10:08;;;;;;;11.23;10.17;;;;;;;12.23;74.69;92058.31;5025973;28;20225;-78
2023/12/02 02:12:33;;;;;;;11.40;10.40;;;;;;;12.02;76.07;92075.59;5025471;28;20183;-80
2023/12/02 02:14:59;;;;;;;10.67;9.93;;;;;;;11.60;77.77;92062.22;5030666;28;20316;-76
2023/12/02 02:17:24;;;;;;;10.70;10.00;;;;;;;11.14;80.06;92065.88;5032484;28;20541;-76
2023/12/02 02:19:49;;;;;;;10.43;9.47;;;;;;;11.45;79.33;92054.75;5025255;28;20231;-76
2023/12/02 02:22:15;;;;;;;10.17;9.27;;;;;;;11.02;79.71;92047.31;5019338;28;20243;-78
2023/12/02 02:24:40;;;;;;;10.67;9.80;;;;;;;11.02;80.75;92036.88;5020591;28;20224;-77
2023/12/02 02:27:06;;;;;;;10.37;9.53;;;;;;;11.34;79.72;92043.75;5029052;28;20201;-77
2023/12/02 02:29:31;;;;;;;10.97;9.87;;;;;;;11.24;80.29;92042.13;5031667;28;20220;-77
2023/12/02 02:31:56;;;;;;;11.53;10.37;;;;;;;11.41;79.97;92059.03;5029478;28;20200;-78
2023/12/02 02:34:22;;;;;;;11.73;10.93;;;;;;;11.64;80.91;92047.53;5031232;28;20224;-78
2023/12/02 02:36:47;;;;;;;10.93;10.13;;;;;;;11.42;81.91;92061.34;5019133;28;20250;-78
2023/12/02 02:39:12;;;;;;;10.60;9.67;;;;;;;11.59;81.84;92056.25;5023848;28;20255;-78
2023/12/02 02:41:38;;;;;;;9.90;9.30;;;;;;;11.79;80.62;92070.69;5030567;28;20279;-79
2023/12/02 02:44:04;;;;;;;10.27;9.33;;;;;;;12.01;79.61;92047.13;5026018;28;20234;-78
2023/12/02 02:46:29;;;;;;;13.03;10.20;;;;;;;11.26;81.65;92042.63;5026599;28;20211;-78
2023/12/02 02:48:55;;;;;;;9.70;9.17;;;;;;;11.41;80.96;92036.25;5023624;28;20231;-78
2023/12/02 02:51:20;;;;;;;10.53;9.77;;;;;;;11.47;80.49;92018.63;5031920;28;20208;-78
2023/12/02 02:53:45;;;;;;;10.33;9.63;;;;;;;11.24;81.21;92036.13;5023104;28;20291;-78
2023/12/02 02:56:11;;;;;;;14.17;9.67;;;;;;;11.39;80.66;92035.81;5031110;28;20179;-78
2023/12/02 02:58:36;;;;;;;10.70;10.00;;;;;;;11.46;79.92;92037.97;5031078;28;20219;-77
2023/12/02 03:01:03;;;;;;;10.43;9.70;;;;;;;11.36;80.40;92042.38;5031027;28;20256;-79
2023/12/02 03:03:28;;;;;;;10.47;9.70;;;;;;;11.22;80.83;92059.94;5030010;28;20240;-78
2023/12/02 03:05:55;;;;;;;9.83;9.27;;;;;;;11.46;80.07;92030.13;5017847;28;20196;-78
2023/12/02 03:08:20;;;;;;;10.17;9.27;;;;;;;11.06;81.39;92040.47;5015393;28;20187;-78
2023/12/02 03:10:48;;;;;;;10.67;9.80;;;;;;;11.05;81.67;92028.44;5026111;28;20191;-79
2023/12/02 03:13:13;;;;;;;9.60;8.87;;;;;;;11.31;81.22;92013.00;5023577;28;20192;-78
2023/12/02 03:15:38;;;;;;;10.60;9.67;;;;;;;10.88;82.83;92035.38;5017600;28;20191;-78
2023/12/02 03:18:04;;;;;;;11.20;10.60;;;;;;;11.08;82.40;92014.81;5030635;28;20247;-78
2023/12/02 03:20:29;;;;;;;11.23;10.50;;;;;;;11.43;80.68;92028.91;5030693;28;20227;-79
2023/12/02 03:22:55;;;;;;;11.47;10.60;;;;;;;11.35;80.91;92040.06;5030493;28;20206;-78
2023/12/02 03:25:20;;;;;;;11.60;10.53;;;;;;;11.21;81.73;92044.56;5030281;28;20223;-78
2023/12/02 03:27:45;;;;;;;10.03;9.47;;;;;;;11.29;81.41;92031.56;5030522;28;20206;-78
2023/12/02 03:30:12;;;;;;;11.37;10.40;;;;;;;10.67;83.73;92006.31;5029433;28;20255;-79
2023/12/02 03:32:38;;;;;;;12.13;10.87;;;;;;;11.13;83.15;92038.19;5030176;28;20480;-79
2023/12/02 03:35:06;;;;;;;10.97;9.67;;;;;;;10.95;83.74;92030.53;5030623;28;20253;-79
2023/12/02 03:37:31;;;;;;;11.57;10.47;;;;;;;10.84;83.80;91998.63;5029796;28;20194;-78
2023/12/02 03:39:57;;;;;;;10.37;9.67;;;;;;;10.81;83.91;92009.69;5029120;28;20932;-78
2023/12/02 03:42:22;;;;;;;12.97;10.43;;;;;;;10.91;84.03;92030.31;5025972;28;20198;-79
2023/12/02 03:44:47;;;;;;;10.20;9.33;;;;;;;11.00;83.25;92023.34;5021958;28;20230;-77
2023/12/02 03:47:13;;;;;;;10.13;9.60;;;;;;;11.06;83.22;92037.84;5028142;28;20195;-77
2023/12/02 03:49:38;;;;;;;10.93;9.87;;;;;;;10.91;83.98;92061.66;5030143;28;20244;-78
2023/12/02 03:52:04;;;;;;;11.07;10.23;;;;;;;10.91;84.01;92071.34;5030695;28;20183;-78
2023/12/02 03:54:29;;;;;;;10.90;10.07;;;;;;;10.93;84.04;92070.00;5029836;28;20282;-78
2023/12/02 03:56:54;;;;;;;12.60;9.77;;;;;;;11.01;83.67;92040.56;5022730;28;20183;-78
2023/12/02 03:59:20;;;;;;;11.03;10.13;;;;;;;10.52;86.17;92060.66;5028520;28;20224;-78
2023/12/02 04:01:45;;;;;;;10.60;9.80;;;;;;;10.79;85.82;92048.34;5027244;28;20281;-78
2023/12/02 04:04:10;;;;;;;10.87;10.07;;;;;;;10.86;84.78;92027.81;5025056;28;20215;-78
2023/12/02 04:06:36;;;;;;;11.03;10.20;;;;;;;11.19;83.93;92034.41;5029234;28;20187;-78
2023/12/02 04:09:01;;;;;;;10.53;9.83;;;;;;;11.21;83.40;92028.88;5029655;28;20227;-78
2023/12/02 04:11:27;;;;;;;10.70;9.80;;;;;;;10.97;84.31;92031.00;5024574;28;20193;-78
2023/12/02 04:13:52;;;;;;;10.07;9.47;;;;;;;11.17;83.35;91986.16;5018207;28;20279;-79
2023/12/02 04:16:17;;;;;;;10.47;9.67;;;;;;;10.85;84.74;92039.34;5025945;28;20698;-81
2023/12/02 04:18:43;;;;;;;10.97;9.97;;;;;;;11.08;83.69;92003.59;5025804;28;20232;-78
2023/12/02 04:21:09;;;;;;;10.20;9.50;;;;;;;11.68;81.15;92009.25;5020056;28;20225;-79
2023/12/02 04:23:37;;;;;;;10.23;9.63;;;;;;;11.62;80.56;91994.72;5019181;28;20230;-78
2023/12/02 04:26:02;;;;;;;11.67;10.47;;;;;;;11.61;81.09;91995.81;5029375;28;20188;-79
2023/12/02 04:28:27;;;;;;;11.03;10.03;;;;;;;11.79;79.92;91979.16;5029114;28;20195;-78
2023/12/02 04:30:53;;;;;;;10.63;10.03;;;;;;;11.41;81.86;91975.41;5026689;28;20188;-79
2023/12/02 04:33:18;;;;;;;10.87;9.87;;;;;;;11.50;81.12;92002.34;5022704;28;20252;-79
2023/12/02 04:35:44;;;;;;;9.70;9.00;;;;;;;10.99;83.23;91948.69;5029860;28;20202;-79
2023/12/02 04:38:09;;;;;;;11.23;10.33;;;;;;;11.29;82.23;91973.31;5029304;28;20187;-78
2023/12/02 04:40:34;;;;;;;9.37;8.77;;;;;;;11.44;81.73;91954.63;5028559;28;20224;-79
2023/12/02 04:43:00;;;;;;;11.87;10.97;;;;;;;11.51;81.01;91943.78;5028911;28;20238;-78
2023/12/02 04:45:25;;;;;;;10.60;9.73;;;;;;;11.20;82.89;91959.44;5024160;28;20232;-78
2023/12/02 04:47:52;;;;;;;15.43;10.23;;;;;;;11.16;82.99;91932.34;5026639;28;20182;-79
2023/12/02 04:50:17;;;;;;;10.53;9.73;;;;;;;11.07;83.86;91934.91;5028474;28;20248;-78
2023/12/02 04:52:43;;;;;;;10.67;10.07;;;;;;;10.68;84.79;91963.47;5028596;28;20201;-78
2023/12/02 04:55:09;;;;;;;10.53;9.83;;;;;;;11.19;82.42;91953.41;5021281;28;20227;-79
2023/12/02 04:57:35;;;;;;;11.50;10.40;;;;;;;11.26;82.10;91956.41;5028205;28;20203;-79
2023/12/02 05:00:00;;;;;;;10.27;9.60;;;;;;;11.11;82.57;91956.75;5023442;28;20748;-79
2023/12/02 05:02:25;;;;;;;10.07;9.37;;;;;;;11.08;82.69;91952.13;5024557;28;20339;-78
2023/12/02 05:04:51;;;;;;;9.93;9.23;;;;;;;11.20;82.33;91967.25;5026382;28;20219;-79
2023/12/02 05:07:16;;;;;;;10.23;9.50;;;;;;;11.24;81.57;91955.91;5026281;28;20204;-79
2023/12/02 05:09:41;;;;;;;10.73;10.20;;;;;;;11.24;81.08;91966.38;5026728;28;20241;-78
2023/12/02 05:12:07;;;;;;;10.20;9.60;;;;;;;10.85;82.06;91953.19;5030897;28;20223;-79
2023/12/02 05:14:34;;;;;;;9.70;9.10;;;;;;;11.16;81.00;91963.69;5023097;28;20253;-79
2023/12/02 05:16:59;;;;;;;9.87;9.07;;;;;;;11.10;81.33;91986.56;5032256;28;20191;-79
2023/12/02 05:19:25;;;;;;;9.93;9.13;;;;;;;11.44;78.90;91972.19;5025646;28;20220;-78
2023/12/02 05:21:50;;;;;;;10.40;9.80;;;;;;;11.50;79.91;91973.59;5027822;28;20346;-79
2023/12/02 05:24:19;;;;;;;11.47;10.57;;;;;;;10.92;81.63;91948.31;5025046;28;20238;-79
2023/12/02 05:26:44;;;;;;;10.27;9.77;;;;;;;11.06;80.55;91956.88;5058619;28;20188;-79
2023/12/02 05:29:09;;;;;;;11.43;10.67;;;;;;;11.15;78.98;91947.25;5025298;28;20246;-79
2023/12/02 05:31:37;;;;;;;15.27;9.87;;;;;;;11.31;77.34;91934.59;5028938;28;20173;-79
2023/12/02 05:34:03;;;;;;;11.10;10.10;;;;;;;11.57;76.94;91959.03;5024388;28;20307;-84
2023/12/02 05:36:28;;;;;;;10.53;9.77;;;;;;;11.71;76.80;91966.81;5032291;28;20208;-83
2023/12/02 05:38:53;;;;;;;9.80;9.00;;;;;;;11.23;76.79;91870.00;5029606;28;20253;-85
2023/12/02 05:41:19;;;;;;;10.73;9.93;;;;;;;11.15;78.07;91955.09;5029879;28;20217;-84
2023/12/02 05:43:44;;;;;;;10.47;9.67;;;;;;;11.59;76.87;91979.63;5028046;28;20256;-84
2023/12/02 05:46:16;;;;;;;9.93;9.07;;;;;;;11.59;77.97;91953.50;5018265;28;20227;-83
2023/12/02 05:48:45;;;;;;;13.50;10.63;;;;;;;11.50;78.86;91922.09;5029612;28;20234;-84
2023/12/02 05:51:12;;;;;;;12.73;11.73;;;;;;;11.48;79.21;91950.38;5031041;28;20187;-84
2023/12/02 05:53:38;;;;;;;10.70;9.70;;;;;;;11.84;77.49;91939.81;5032466;28;20357;-84
2023/12/02 05:56:04;;;;;;;11.13;9.90;;;;;;;12.09;76.27;91928.66;5031444;28;20188;-84
2023/12/02 05:58:30;;;;;;;10.63;10.03;;;;;;;11.54;78.00;91928.25;5027857;28;20185;-78
2023/12/02 06:00:55;;;;;;;10.77;9.67;;;;;;;12.02;76.95;91925.72;5029320;28;20181;-77
2023/12/02 06:03:21;;;;;;;10.83;9.93;;;;;;;12.09;76.30;91942.53;5024973;28;20265;-78
2023/12/02 06:05:46;;;;;;;13.50;12.70;;;;;;;12.39;73.98;91941.66;5026989;28;20201;-77
2023/12/02 06:08:11;;;;;;;11.47;10.53;;;;;;;12.41;73.81;91928.28;5023626;28;20221;-76
2023/12/02 06:10:37;;;;;;;11.93;10.73;;;;;;;12.39;75.76;91948.75;5025395;28;20191;-78
2023/12/02 06:13:02;;;;;;;32.00;18.73;;;;;;;12.18;76.84;91959.03;5023899;28;20229;-77
2023/12/02 06:15:28;;;;;;;12.37;11.23;;;;;;;12.16;77.15;91973.47;5020970;28;20224;-77
2023/12/02 06:17:56;;;;;;;11.07;9.93;;;;;;;12.35;76.14;91980.00;5030463;28;20233;-77
2023/12/02 06:20:24;;;;;;;12.63;11.37;;;;;;;12.43;75.12;91968.00;5027792;28;20228;-76
2023/12/02 06:22:50;;;;;;;12.43;11.13;;;;;;;12.20;77.60;91988.25;5026974;28;21075;-84
2023/12/02 06:25:16;;;;;;;13.90;12.47;;;;;;;12.25;77.38;91982.88;5028744;28;20265;-88
2023/12/02 06:27:41;;;;;;;13.40;11.17;;;;;;;12.09;77.75;91960.06;5026195;28;20198;-86
2023/12/02 06:30:07;;;;;;;13.00;12.10;;;;;;;12.09;78.24;91986.22;5030558;28;20238;-91
2023/12/02 06:32:33;;;;;;;11.63;10.83;;;;;;;12.09;77.95;91967.91;5027633;28;20239;-77
2023/12/02 06:34:58;;;;;;;12.87;11.53;;;;;;;11.96;78.61;91993.09;5025185;28;20226;-75
2023/12/02 06:37:24;;;;;;;16.03;11.60;;;;;;;12.04;77.84;91960.19;5030236;28;20186;-77
2023/12/02 06:39:49;;;;;;;10.87;9.93;;;;;;;12.04;78.44;92017.75;5020745;28;20340;-76
2023/12/02 06:42:15;;;;;;;10.63;9.80;;;;;;;12.27;77.33;91987.81;5023320;28;20306;-76
2023/12/02 06:44:42;;;;;;;11.90;11.10;;;;;;;12.09;78.05;92001.91;5016105;28;20297;-78
2023/12/02 06:47:08;;;;;;;11.80;10.73;;;;;;;12.40;77.28;91986.94;5023145;28;20217;-77
2023/12/02 06:49:33;;;;;;;12.33;11.07;;;;;;;12.14;77.92;92007.78;5031015;28;20217;-77
2023/12/02 06:51:59;;;;;;;12.33;11.33;;;;;;;11.96;78.65;91994.94;5028409;28;20191;-79
2023/12/02 06:54:24;;;;;;;11.37;10.20;;;;;;;12.16;77.99;91997.00;5024011;28;20237;-79
2023/12/02 06:56:50;;;;;;;10.90;10.27;;;;;;;11.98;78.30;92011.09;5030765;28;20189;-79
2023/12/02 06:59:15;;;;;;;12.20;11.27;;;;;;;12.20;77.66;91996.09;5017355;28;20496;-79
2023/12/02 07:01:41;;;;;;;10.67;9.73;;;;;;;12.15;78.54;92006.72;5023085;28;20193;-78
2023/12/02 07:04:06;;;;;;;56.80;36.47;;;;;;;11.86;78.92;91998.56;5027001;28;20294;-78
2023/12/02 07:06:32;;;;;;;17.07;14.47;;;;;;;11.84;78.28;91992.91;5025090;28;20209;-80
2023/12/02 07:08:58;;;;;;;11.90;11.20;;;;;;;11.88;79.01;92000.88;5027328;28;20252;-76
2023/12/02 07:11:23;;;;;;;14.33;13.07;;;;;;;12.49;81.06;91982.50;5058373;28;20191;-77
2023/12/02 07:13:49;;;;;;;13.13;12.10;;;;;;;12.29;81.77;92006.63;5033534;28;20230;-79
2023/12/02 07:16:15;;;;;;;12.30;11.20;;;;;;;12.36;78.07;91999.84;5026107;28;20222;-78
2023/12/02 07:18:40;;;;;;;13.27;12.23;;;;;;;12.37;76.03;91993.53;5025974;28;20233;-77
2023/12/02 07:21:07;;;;;;;12.73;11.30;;;;;;;12.43;75.66;92007.28;5024959;28;20210;-79
2023/12/02 07:23:33;;;;;;;12.10;10.87;;;;;;;12.27;75.68;92017.38;5024355;28;20226;-77
2023/12/02 07:25:59;;;;;;;11.17;10.20;;;;;;;12.28;75.55;91999.84;5025832;28;20191;-77
2023/12/02 07:28:25;;;;;;;11.43;10.70;;;;;;;12.25;76.53;92021.38;5027813;28;20175;-77
2023/12/02 07:30:51;;;;;;;11.17;10.17;;;;;;;12.49;75.34;92006.84;5026082;28;20218;-77
2023/12/02 07:33:18;;;;;;;13.23;12.00;;;;;;;12.48;75.96;92000.03;5026437;28;20252;-77
2023/12/02 07:35:44;;;;;;;16.50;11.83;;;;;;;12.03;76.04;91997.91;5029831;28;20249;-78
2023/12/02 07:38:09;;;;;;;12.77;11.57;;;;;;;12.03;76.34;92008.38;5028383;28;20183;-78
2023/12/02 07:40:35;;;;;;;13.20;11.33;;;;;;;12.16;75.52;92025.78;5026638;28;20244;-78
2023/12/02 07:43:01;;;;;;;11.73;10.73;;;;;;;12.42;75.13;92016.22;5026833;28;20323;-77
2023/12/02 07:45:27;;;;;;;12.57;11.47;;;;;;;12.55;74.26;91994.38;5024216;28;20315;-80
2023/12/02 07:47:52;;;;;;;11.57;10.47;;;;;;;12.63;74.54;92001.47;5026175;28;20207;-78
2023/12/02 07:50:18;;;;;;;16.27;14.97;;;;;;;12.60;73.20;92012.56;5028566;28;20206;-80
2023/12/02 07:52:43;;;;;;;14.00;12.97;;;;;;;12.63;74.23;91983.13;5029495;28;20200;-78
2023/12/02 07:55:08;;;;;;;13.10;11.97;;;;;;;12.52;73.91;91974.03;5029343;28;20278;-77
2023/12/02 07:57:34;;;;;;;14.23;10.57;;;;;;;12.56;72.55;91975.72;5028843;28;20219;-79
2023/12/02 07:59:59;;;;;;;17.00;15.50;;;;;;;12.65;73.03;91968.66;5029080;28;20311;-80
2023/12/02 08:02:25;;;;;;;52.00;36.73;;;;;;;12.64;74.05;91982.06;5029566;28;20236;-80
2023/12/02 08:04:50;;;;;;;52.13;38.53;;;;;;;12.89;72.04;91976.06;5025967;28;20235;-79
2023/12/02 08:07:15;;;;;;;41.00;34.07;;;;;;;12.89;71.98;91989.19;5027652;28;20197;-77
2023/12/02 08:09:41;;;;;;;34.70;30.03;;;;;;;12.97;71.85;91985.78;5019509;28;20248;-80
2023/12/02 08:12:06;;;;;;;15.33;13.97;;;;;;;13.20;68.82;91953.13;5023457;28;20198;-82
2023/12/02 08:14:32;;;;;;;43.60;31.53;;;;;;;12.93;70.13;91985.63;5027599;28;20717;-82
2023/12/02 08:16:57;;;;;;;86.60;64.10;;;;;;;13.10;68.92;91948.22;5029358;28;20198;-82
2023/12/02 08:19:22;;;;;;;75.17;51.43;;;;;;;12.86;71.16;91976.69;5021309;28;20260;-83
2023/12/02 08:21:48;;;;;;;109.83;66.67;;;;;;;13.00;70.13;91963.47;5029407;28;20688;-81
2023/12/02 08:24:13;;;;;;;60.17;41.33;;;;;;;12.82;71.83;91970.53;5028147;28;20328;-82
2023/12/02 08:26:38;;;;;;;145.53;86.47;;;;;;;12.66;72.04;91964.19;5029167;28;20185;-83
2023/12/02 08:29:04;;;;;;;68.97;44.03;;;;;;;12.77;71.42;91934.78;5026358;28;20248;-84
2023/12/02 08:31:30;;;;;;;84.90;51.10;;;;;;;12.88;70.54;91950.97;5023404;28;20186;-81
2023/12/02 08:33:55;;;;;;;40.10;29.30;;;;;;;12.81;70.26;91954.03;5028276;28;20308;-77
2023/12/02 08:36:21;;;;;;;75.97;45.43;;;;;;;12.83;71.03;91953.72;5028878;28;20203;-78
2023/12/02 08:38:46;;;;;;;18.20;16.50;;;;;;;13.03;67.75;91934.06;5027679;28;20228;-78
2023/12/02 08:41:11;;;;;;;18.73;16.83;;;;;;;13.09;67.45;91936.19;5022279;28;20190;-77
2023/12/02 08:43:37;;;;;;;16.97;15.43;;;;;;;13.18;67.05;91950.09;5026492;28;20258;-79
2023/12/02 08:46:03;;;;;;;15.83;14.07;;;;;;;13.14;67.87;91979.81;5023546;28;20204;-77
2023/12/02 08:48:28;;;;;;;98.67;56.13;;;;;;;13.12;66.87;91977.50;5018162;28;20209;-80
2023/12/02 08:50:54;;;;;;;202.43;119.70;;;;;;;13.24;66.35;91964.56;5029358;28;20186;-79
2023/12/02 08:53:19;;;;;;;107.87;68.50;;;;;;;13.16;66.17;91960.09;5029929;28;20240;-79
2023/12/02 08:55:44;;;;;;;84.00;51.90;;;;;;;13.39;65.83;91960.66;5017119;28;20197;-79
2023/12/02 08:58:10;;;;;;;63.77;44.90;;;;;;;13.29;65.63;91945.28;5020808;28;20222;-80
2023/12/02 09:00:35;;;;;;;25.40;19.87;;;;;;;13.04;68.47;91933.75;5020203;28;20245;-79
2023/12/02 09:03:00;;;;;;;27.17;23.77;;;;;;;13.19;67.53;91966.56;5028258;28;20245;-79
2023/12/02 09:05:26;;;;;;;14.30;12.93;;;;;;;13.61;64.55;91948.16;5016511;28;20223;-79
2023/12/02 09:07:52;;;;;;;28.93;21.10;;;;;;;13.65;66.18;91969.28;5023356;28;20222;-79
2023/12/02 09:10:18;;;;;;;54.90;40.93;;;;;;;13.53;67.11;91966.50;5028144;28;20233;-78
2023/12/02 09:12:44;;;;;;;38.60;30.43;;;;;;;13.56;67.11;91961.41;5020245;28;20755;-77
2023/12/02 09:15:39;;;;;;;30.87;21.97;;;;;;;13.45;68.46;91968.06;5016970;28;20304;-76
2023/12/02 09:18:04;;;;;;;18.07;16.13;;;;;;;13.34;67.56;91976.59;5019215;28;20219;-80
2023/12/02 09:20:53;;;;;;;18.37;14.37;;;;;;;13.84;66.66;91959.97;5027342;28;20233;-78
2023/12/02 09:23:20;;;;;;;59.27;36.40;;;;;;;14.20;66.35;91960.31;5027521;28;20218;-78
2023/12/02 09:25:47;;;;;;;179.53;97.33;;;;;;;14.48;64.22;91956.19;5026249;28;20187;-77
2023/12/02 09:28:16;;;;;;;88.23;49.57;;;;;;;14.57;67.16;91936.97;5024307;28;20198;-76
2023/12/02 09:31:05;;;;;;;38.53;25.63;;;;;;;15.04;62.34;91952.25;5027856;28;20219;-77
2023/12/02 09:33:31;;;;;;;24.37;19.17;;;;;;;15.42;61.83;91952.13;5027968;28;20229;-77
2023/12/02 09:35:59;;;;;;;20.73;17.20;;;;;;;15.42;61.79;91931.06;5020953;28;20885;-77
2023/12/02 09:38:25;;;;;;;14.00;11.77;;;;;;;15.69;57.56;91926.00;5024697;28;20190;-77
2023/12/02 09:41:00;;;;;;;14.30;12.90;;;;;;;15.47;59.53;91931.63;5027891;28;20175;-77
2023/12/02 09:43:57;;;;;;;13.73;11.53;;;;;;;15.75;57.14;91945.00;5027502;28;20209;-79
2023/12/02 09:46:32;;;;;;;11.77;10.73;;;;;;;15.87;55.98;91950.28;5026988;28;20336;-77
2023/12/02 09:49:17;;;;;;;12.40;11.30;;;;;;;15.91;55.65;91927.47;5021457;28;20226;-77
2023/12/02 09:51:56;;;;;;;11.37;10.47;;;;;;;15.69;54.12;91926.00;5022664;28;20218;-79
2023/12/02 09:54:49;;;;;;;11.80;10.90;;;;;;;15.77;50.97;91927.00;5018102;28;20223;-79
2023/12/02 09:57:37;;;;;;;13.13;11.17;;;;;;;16.67;45.51;91919.72;5022444;28;20219;-77
2023/12/02 10:00:12;;;;;;;11.53;10.43;;;;;;;16.80;45.16;91922.00;5025150;28;20602;-77
2023/12/02 10:02:49;;;;;;;14.73;13.27;;;;;;;17.66;38.53;91916.13;5022038;28;20202;-78
2023/12/02 10:05:15;;;;;;;15.90;14.13;;;;;;;17.49;40.49;91911.91;5023590;28;20240;-76
2023/12/02 10:08:12;;;;;;;18.13;12.63;;;;;;;17.11;44.03;91901.03;5023489;28;21015;-77
2023/12/02 10:10:56;;;;;;;13.43;11.37;;;;;;;17.03;43.76;91894.03;5018402;28;20207;-79
2023/12/02 10:13:37;;;;;;;10.77;9.83;;;;;;;17.34;39.08;91909.97;5027581;28;20187;-77
2023/12/02 10:16:10;;;;;;;10.53;9.50;;;;;;;17.41;40.12;91894.34;5020178;28;20205;-77
2023/12/02 10:18:38;;;;;;;12.40;11.17;;;;;;;17.44;39.29;91862.03;5020673;28;20235;-76
2023/12/02 10:21:10;;;;;;;10.90;9.83;;;;;;;17.25;40.70;91863.72;5017652;28;20306;-77
2023/12/02 10:23:54;;;;;;;11.63;10.57;;;;;;;17.25;39.71;91847.91;5028745;28;20231;-78
2023/12/02 10:26:27;;;;;;;11.17;10.30;;;;;;;17.32;36.88;91842.81;5022723;28;20254;-77
2023/12/02 10:29:13;;;;;;;10.27;9.47;;;;;;;17.65;36.83;91826.72;5031021;28;20246;-77
2023/12/02 10:32:03;;;;;;;9.70;8.63;;;;;;;17.68;36.97;91849.78;5022552;28;20192;-79
2023/12/02 10:34:56;;;;;;;9.83;8.97;;;;;;;17.78;35.25;91809.66;5023491;28;20211;-78
2023/12/02 10:37:32;;;;;;;12.80;9.30;;;;;;;17.79;35.54;91851.56;5052438;28;20194;-79
2023/12/02 10:40:00;;;;;;;12.27;9.20;;;;;;;17.92;35.26;91826.63;5026351;28;20286;-78
2023/12/02 10:42:45;;;;;;;8.70;8.07;;;;;;;17.95;35.80;91852.34;5025537;28;20210;-78
2023/12/02 10:45:14;;;;;;;9.40;8.73;;;;;;;17.96;35.28;91866.31;5021850;28;20274;-77
2023/12/02 10:47:40;;;;;;;9.40;8.63;;;;;;;18.06;35.20;91842.81;5026851;28;20569;-78
2023/12/02 10:50:07;;;;;;;10.83;9.10;;;;;;;18.13;34.05;91832.41;5039358;28;20226;-79
2023/12/02 10:52:34;;;;;;;11.60;10.67;;;;;;;18.08;36.64;91811.53;5025371;28;20251;-78
2023/12/02 10:55:02;;;;;;;10.43;9.50;;;;;;;17.71;38.69;91854.38;5031003;28;20234;-79
2023/12/02 10:57:29;;;;;;;14.37;10.20;;;;;;;17.77;39.13;91858.31;5033336;28;20179;-80
2023/12/02 11:00:07;;;;;;;11.20;10.13;;;;;;;17.45;40.51;91857.50;5025047;28;20230;-79
2023/12/02 11:02:49;;;;;;;11.07;10.13;;;;;;;16.99;42.79;91829.88;5027758;28;20287;-79
2023/12/02 11:05:28;;;;;;;11.83;10.17;;;;;;;16.18;46.19;91832.03;5033585;28;20253;-81
2023/12/02 11:07:55;;;;;;;12.67;9.60;;;;;;;16.98;42.32;91801.22;5026827;28;20210;-82
2023/12/02 11:10:31;;;;;;;17.60;10.97;;;;;;;16.88;42.64;91828.06;5030060;28;20218;-77
2023/12/02 11:13:00;;;;;;;10.50;9.53;;;;;;;16.99;39.55;91798.25;5025300;28;20183;-80
2023/12/02 11:15:27;;;;;;;9.87;9.07;;;;;;;17.16;43.41;91808.50;5022958;28;20215;-79
2023/12/02 11:18:07;;;;;;;10.67;9.63;;;;;;;16.98;42.99;91812.50;5033054;28;20242;-80
2023/12/02 11:21:01;;;;;;;12.37;10.07;;;;;;;17.28;41.12;91828.75;5029345;28;20219;-79
2023/12/02 11:23:41;;;;;;;9.63;8.83;;;;;;;17.31;36.70;91801.69;5035816;28;20218;-83